Time;durP1;ratioP1;P1;durP2;ratioP2;P2;SDS_P1;SDS_P2;PMS_P1;PMS_P2;Temp;Humidity;BMP_temperature;BMP_pressure;BME280_temperature;BME280_humidity;BME280_pressure;Samples;Min_cycle;Max_cycle;Signal;HPM_P1;HPM_P2
2021/12/29 00:02:24;;;;;;;30.60;15.70;;;2.40;1.00;;;;;;5034052;28;20417;-74
2021/12/29 00:04:50;;;;;;;24.73;13.67;;;2.30;1.00;;;;;;5034992;28;20763;-74
2021/12/29 00:07:16;;;;;;;39.63;17.10;;;2.20;1.00;;;;;;5035017;28;20198;-74
2021/12/29 00:09:42;;;;;;;36.83;17.83;;;2.10;1.00;;;;;;5035246;28;20167;-74
2021/12/29 00:12:09;;;;;;;28.50;17.20;;;2.10;1.00;;;;;;5032559;28;20203;-75
2021/12/29 00:14:36;;;;;;;30.10;17.40;;;2.20;1.00;;;;;;5034994;28;20406;-66
2021/12/29 00:17:02;;;;;;;32.00;16.60;;;2.10;1.00;;;;;;5034809;28;20513;-74
2021/12/29 00:19:28;;;;;;;37.90;17.27;;;2.10;1.00;;;;;;5034530;28;20810;-74
2021/12/29 00:21:54;;;;;;;28.07;16.50;;;2.10;1.00;;;;;;5034507;28;20535;-66
2021/12/29 00:24:20;;;;;;;30.77;16.10;;;2.00;1.00;;;;;;5034392;28;20180;-75
2021/12/29 00:26:45;;;;;;;33.43;18.27;;;2.00;1.00;;;;;;5034751;28;20505;-72
2021/12/29 00:29:11;;;;;;;28.87;16.00;;;2.00;1.00;;;;;;5034589;28;20196;-73
2021/12/29 00:31:36;;;;;;;28.47;17.23;;;2.00;1.00;;;;;;5034158;28;20708;-74
2021/12/29 00:34:02;;;;;;;49.27;19.63;;;2.00;1.00;;;;;;5033904;28;20245;-74
2021/12/29 00:36:28;;;;;;;37.07;18.50;;;1.90;1.00;;;;;;5034177;28;20257;-67
2021/12/29 00:38:54;;;;;;;27.37;17.20;;;1.90;1.00;;;;;;5034484;28;20172;-74
2021/12/29 00:41:20;;;;;;;29.40;18.27;;;2.00;1.00;;;;;;5034454;28;20172;-67
2021/12/29 00:43:46;;;;;;;24.80;15.10;;;2.10;1.00;;;;;;5033747;28;20894;-70
2021/12/29 00:46:14;;;;;;;29.83;15.63;;;2.20;1.00;;;;;;5034239;28;20983;-73
2021/12/29 00:48:43;;;;;;;35.43;15.13;;;2.20;1.00;;;;;;5034360;28;20417;-74
2021/12/29 00:51:10;;;;;;;28.53;15.47;;;2.30;1.00;;;;;;5033200;28;20815;-66
2021/12/29 00:53:36;;;;;;;32.70;15.57;;;2.30;1.00;;;;;;5033118;28;20406;-74
2021/12/29 00:56:03;;;;;;;42.00;18.07;;;2.40;1.00;;;;;;5034183;28;20430;-73
2021/12/29 00:58:29;;;;;;;42.63;17.37;;;2.50;1.00;;;;;;5034221;28;20767;-67
2021/12/29 01:00:56;;;;;;;35.13;17.47;;;2.30;1.00;;;;;;5033550;28;20406;-67
2021/12/29 01:03:22;;;;;;;27.37;15.60;;;2.20;1.00;;;;;;5033286;28;20910;-67
2021/12/29 01:05:48;;;;;;;29.07;17.43;;;2.10;1.00;;;;;;5034076;28;20430;-72
2021/12/29 01:08:14;;;;;;;27.50;15.90;;;2.00;1.00;;;;;;5033953;28;20394;-74
2021/12/29 01:10:41;;;;;;;30.73;17.10;;;2.10;1.00;;;;;;5033584;28;20258;-67
2021/12/29 01:13:09;;;;;;;49.07;17.77;;;2.20;1.00;;;;;;5032970;28;20406;-68
2021/12/29 01:15:56;;;;;;;35.77;17.47;;;2.30;1.00;;;;;;5033734;28;20464;-68
2021/12/29 01:18:22;;;;;;;37.70;17.83;;;2.30;1.00;;;;;;5033967;28;20921;-73
2021/12/29 01:20:47;;;;;;;29.63;16.00;;;2.40;1.00;;;;;;5033862;28;20402;-67
2021/12/29 01:23:13;;;;;;;31.70;16.03;;;2.30;1.00;;;;;;5031939;28;20426;-73
2021/12/29 01:25:39;;;;;;;36.17;18.67;;;2.40;1.00;;;;;;5032040;28;20199;-74
2021/12/29 01:28:04;;;;;;;38.27;18.17;;;2.30;1.00;;;;;;5032998;28;20175;-74
2021/12/29 01:30:30;;;;;;;37.70;16.60;;;2.40;1.00;;;;;;5033332;28;20651;-73
2021/12/29 01:32:56;;;;;;;32.70;17.73;;;2.30;1.00;;;;;;5032975;28;20517;-71
2021/12/29 01:35:22;;;;;;;35.53;17.27;;;2.20;1.00;;;;;;5033350;28;20168;-67
2021/12/29 01:37:47;;;;;;;33.43;17.50;;;2.10;1.00;;;;;;5033576;28;20172;-74
2021/12/29 01:40:17;;;;;;;33.03;17.30;;;2.10;1.00;;;;;;5033646;28;20171;-66
2021/12/29 01:42:42;;;;;;;32.57;16.60;;;2.00;1.00;;;;;;5032777;28;20167;-74
2021/12/29 01:45:09;;;;;;;28.47;16.10;;;2.10;1.00;;;;;;5033204;28;20414;-73
2021/12/29 01:47:35;;;;;;;30.93;18.77;;;2.10;1.00;;;;;;5032605;28;20191;-66
2021/12/29 01:50:02;;;;;;;40.10;19.00;;;2.10;1.00;;;;;;5033450;28;20457;-70
2021/12/29 01:52:34;;;;;;;35.70;18.87;;;2.20;1.00;;;;;;5032518;28;20265;-66
2021/12/29 01:54:59;;;;;;;35.43;15.90;;;2.20;1.00;;;;;;5033314;28;20802;-67
2021/12/29 01:57:25;;;;;;;53.37;19.87;;;2.30;1.00;;;;;;5033135;28;20442;-74
2021/12/29 01:59:50;;;;;;;37.17;16.83;;;2.20;1.00;;;;;;5033244;28;20168;-74
2021/12/29 02:02:16;;;;;;;33.63;16.43;;;2.20;1.00;;;;;;5032256;28;20247;-71
2021/12/29 02:04:44;;;;;;;33.03;17.03;;;2.30;1.00;;;;;;5032856;28;20175;-73
2021/12/29 02:07:09;;;;;;;41.77;16.80;;;2.40;1.00;;;;;;5033168;28;20791;-74
2021/12/29 02:09:36;;;;;;;31.33;16.93;;;2.50;1.00;;;;;;5033101;28;20501;-68
2021/12/29 02:12:03;;;;;;;46.33;18.10;;;2.50;1.00;;;;;;5032313;28;20218;-71
2021/12/29 02:14:29;;;;;;;35.10;16.90;;;2.50;1.00;;;;;;5033258;28;20402;-67
2021/12/29 02:16:55;;;;;;;33.83;17.07;;;2.60;1.00;;;;;;5033276;28;20420;-67
2021/12/29 02:19:23;;;;;;;41.27;16.20;;;2.60;1.00;;;;;;5032685;28;20501;-73
2021/12/29 02:22:01;;;;;;;33.67;16.60;;;2.60;1.00;;;;;;5032393;28;20410;-67
2021/12/29 02:24:35;;;;;;;38.10;18.03;;;2.70;1.00;;;;;;5032993;28;20887;-72
2021/12/29 02:27:03;;;;;;;38.10;20.27;;;2.60;1.00;;;;;;5031788;28;20428;-67
2021/12/29 02:29:31;;;;;;;33.93;16.23;;;2.60;1.00;;;;;;5033014;28;20410;-68
2021/12/29 02:31:57;;;;;;;31.83;16.60;;;2.60;1.00;;;;;;5032768;28;20979;-73
2021/12/29 02:34:22;;;;;;;44.47;17.30;;;2.60;1.00;;;;;;5032609;28;20415;-67
2021/12/29 02:36:48;;;;;;;32.20;16.97;;;2.50;1.00;;;;;;5032698;28;20284;-71
2021/12/29 02:39:19;;;;;;;34.13;17.40;;;2.50;1.00;;;;;;5034532;28;20585;-73
2021/12/29 02:41:54;;;;;;;42.20;16.20;;;2.40;1.00;;;;;;5036779;28;20168;-67
2021/12/29 02:44:28;;;;;;;30.37;16.93;;;2.50;1.00;;;;;;5035780;28;20406;-73
2021/12/29 02:46:56;;;;;;;33.00;19.20;;;2.50;1.00;;;;;;5036482;28;20995;-73
2021/12/29 02:49:23;;;;;;;34.43;15.63;;;2.60;1.00;;;;;;5035168;28;20774;-68
2021/12/29 02:51:49;;;;;;;45.90;16.63;;;2.60;1.00;;;;;;5036290;28;20966;-67
2021/12/29 02:54:16;;;;;;;35.57;17.83;;;2.60;1.00;;;;;;5035153;28;20405;-72
2021/12/29 02:56:44;;;;;;;41.83;18.77;;;2.60;1.00;;;;;;5036287;28;20417;-68
2021/12/29 02:59:09;;;;;;;36.83;18.13;;;2.70;1.00;;;;;;5036518;28;20395;-68
2021/12/29 03:01:35;;;;;;;30.57;17.87;;;2.70;1.00;;;;;;5036442;28;20402;-68
2021/12/29 03:04:06;;;;;;;37.73;19.30;;;2.70;1.00;;;;;;5035491;28;20259;-71
2021/12/29 03:06:32;;;;;;;26.93;16.87;;;2.70;1.00;;;;;;5036170;28;20690;-70
2021/12/29 03:08:57;;;;;;;41.70;17.80;;;2.70;1.00;;;;;;5036240;28;20402;-67
2021/12/29 03:11:23;;;;;;;44.37;16.33;;;2.70;1.00;;;;;;5036177;28;20446;-74
2021/12/29 03:13:49;;;;;;;31.87;17.47;;;2.80;1.00;;;;;;5034687;28;20418;-67
2021/12/29 03:16:15;;;;;;;36.57;17.97;;;2.80;1.00;;;;;;5035782;28;20502;-72
2021/12/29 03:18:42;;;;;;;29.43;16.57;;;2.70;1.00;;;;;;5036165;28;20877;-73
2021/12/29 03:21:09;;;;;;;49.77;20.20;;;2.80;1.00;;;;;;5035935;28;20168;-73
2021/12/29 03:23:34;;;;;;;34.23;15.93;;;2.80;1.00;;;;;;5033945;28;20415;-71
2021/12/29 03:26:02;;;;;;;32.23;18.33;;;2.80;1.00;;;;;;5035933;28;20439;-68
2021/12/29 03:28:27;;;;;;;39.00;18.23;;;2.60;1.00;;;;;;5035872;28;20549;-67
2021/12/29 03:30:55;;;;;;;31.07;15.97;;;2.60;1.00;;;;;;5034438;28;20881;-68
2021/12/29 03:33:23;;;;;;;36.63;16.93;;;2.60;1.00;;;;;;5034260;28;20172;-69
2021/12/29 03:35:53;;;;;;;34.80;16.93;;;2.60;1.00;;;;;;5035743;28;20418;-70
2021/12/29 03:38:23;;;;;;;40.33;17.10;;;2.60;1.00;;;;;;5035559;28;20394;-73
2021/12/29 03:40:50;;;;;;;36.43;17.37;;;2.60;1.00;;;;;;5035713;28;20752;-73
2021/12/29 03:43:16;;;;;;;28.93;16.00;;;2.60;1.00;;;;;;5033647;28;20981;-68
2021/12/29 03:45:45;;;;;;;53.37;15.23;;;2.70;1.00;;;;;;5035366;28;20426;-73
2021/12/29 03:48:11;;;;;;;37.13;18.80;;;2.60;1.00;;;;;;5035502;28;20430;-66
2021/12/29 03:50:38;;;;;;;37.30;16.93;;;2.60;1.00;;;;;;5034800;28;20418;-67
2021/12/29 03:53:04;;;;;;;29.40;15.93;;;2.70;1.00;;;;;;5033973;28;20473;-73
2021/12/29 03:55:30;;;;;;;31.80;16.97;;;2.70;1.00;;;;;;5035193;28;20891;-73
2021/12/29 03:57:56;;;;;;;28.17;14.43;;;2.70;1.00;;;;;;5035286;28;20497;-73
2021/12/29 04:00:22;;;;;;;31.00;17.80;;;2.70;1.00;;;;;;5033933;28;20275;-68
2021/12/29 04:02:48;;;;;;;31.47;17.97;;;2.60;1.00;;;;;;5034472;28;20172;-74
2021/12/29 04:05:20;;;;;;;39.67;15.87;;;2.60;1.00;;;;;;5035144;28;20923;-73
2021/12/29 04:07:46;;;;;;;30.87;17.50;;;2.60;1.00;;;;;;5034162;28;20415;-71
2021/12/29 04:10:12;;;;;;;29.70;16.63;;;2.50;1.00;;;;;;5034283;28;20414;-74
2021/12/29 04:12:39;;;;;;;32.37;16.20;;;2.30;1.00;;;;;;5034054;28;20456;-71
2021/12/29 04:15:06;;;;;;;34.27;15.97;;;2.30;1.00;;;;;;5035243;28;20211;-68
2021/12/29 04:17:37;;;;;;;29.33;13.93;;;2.40;1.00;;;;;;5034870;28;20414;-73
2021/12/29 04:23:00;;;;;;;26.13;12.17;;;2.50;1.00;;;;;;5034075;28;20406;-73
2021/12/29 04:25:26;;;;;;;33.43;15.47;;;2.50;1.00;;;;;;5034891;28;20437;-70
2021/12/29 04:27:53;;;;;;;38.07;15.33;;;2.50;1.00;;;;;;5034383;28;20410;-72
2021/12/29 04:30:20;;;;;;;43.23;19.20;;;2.60;1.00;;;;;;5034685;28;20421;-73
2021/12/29 04:32:46;;;;;;;35.40;20.10;;;2.60;1.00;;;;;;5033912;28;20792;-69
2021/12/29 04:35:11;;;;;;;30.17;17.70;;;2.60;1.00;;;;;;5034649;28;20409;-67
2021/12/29 04:37:38;;;;;;;40.73;18.87;;;2.60;1.00;;;;;;5033918;28;20437;-73
2021/12/29 04:40:06;;;;;;;41.87;18.47;;;2.70;1.00;;;;;;5033524;28;20588;-67
2021/12/29 04:42:31;;;;;;;35.33;17.30;;;2.60;1.00;;;;;;5033629;28;20411;-68
2021/12/29 04:44:57;;;;;;;33.57;18.33;;;2.70;1.00;;;;;;5034242;28;20414;-66
2021/12/29 04:47:28;;;;;;;31.83;15.53;;;2.70;1.00;;;;;;5033895;28;20195;-73
2021/12/29 04:49:54;;;;;;;38.80;16.30;;;2.70;1.00;;;;;;5034284;28;20410;-68
2021/12/29 04:52:20;;;;;;;36.73;15.80;;;2.70;1.00;;;;;;5033520;28;20548;-67
2021/12/29 04:54:46;;;;;;;42.97;17.80;;;2.70;1.00;;;;;;5034294;28;20931;-69
2021/12/29 04:57:12;;;;;;;38.70;15.03;;;2.60;1.00;;;;;;5034120;28;20599;-73
2021/12/29 04:59:38;;;;;;;41.20;18.57;;;2.50;1.00;;;;;;5034276;28;20167;-72
2021/12/29 05:02:03;;;;;;;36.97;15.77;;;2.60;1.00;;;;;;5032748;28;20402;-73
2021/12/29 05:04:32;;;;;;;40.60;16.40;;;2.60;1.00;;;;;;5033302;28;20262;-67
2021/12/29 05:09:44;;;;;;;37.30;17.30;;;2.60;1.00;;;;;;5034395;28;20534;-68
2021/12/29 05:12:09;;;;;;;30.93;15.87;;;2.60;1.00;;;;;;5031958;28;20466;-67
2021/12/29 05:14:35;;;;;;;42.63;17.57;;;2.60;1.00;;;;;;5033859;28;20293;-67
2021/12/29 05:17:02;;;;;;;37.80;18.83;;;2.70;1.00;;;;;;5033713;28;20199;-68
2021/12/29 05:19:27;;;;;;;42.10;20.80;;;2.60;1.00;;;;;;5033366;28;20441;-72
2021/12/29 05:21:53;;;;;;;44.57;16.97;;;2.70;1.00;;;;;;5033429;28;20839;-67
2021/12/29 05:24:19;;;;;;;39.73;20.80;;;2.70;1.00;;;;;;5032882;28;20163;-67
2021/12/29 05:26:45;;;;;;;52.57;18.87;;;2.80;1.00;;;;;;5033728;28;20199;-69
2021/12/29 05:29:10;;;;;;;44.53;20.17;;;2.80;1.00;;;;;;5033703;28;20413;-72
2021/12/29 05:31:36;;;;;;;40.33;19.23;;;2.80;1.00;;;;;;5033683;28;20716;-73
2021/12/29 05:34:02;;;;;;;41.47;17.23;;;2.80;1.00;;;;;;5032844;28;20171;-73
2021/12/29 05:36:28;;;;;;;45.87;18.83;;;2.80;1.00;;;;;;5033378;28;20429;-72
2021/12/29 05:38:56;;;;;;;35.20;16.53;;;2.80;1.00;;;;;;5033323;28;20403;-67
2021/12/29 05:41:22;;;;;;;30.53;16.70;;;2.80;1.00;;;;;;5032915;28;20242;-72
2021/12/29 05:43:48;;;;;;;35.90;15.77;;;2.80;1.00;;;;;;5031472;28;20518;-72
2021/12/29 05:46:13;;;;;;;27.80;14.87;;;2.80;1.00;;;;;;5033398;28;20433;-68
2021/12/29 05:48:39;;;;;;;43.57;20.57;;;2.80;1.00;;;;;;5033424;28;20194;-74
2021/12/29 05:51:05;;;;;;;46.00;16.93;;;2.80;1.00;;;;;;5033231;28;20201;-74
2021/12/29 05:53:31;;;;;;;35.80;17.70;;;2.80;1.00;;;;;;5031340;28;20203;-74
2021/12/29 05:55:57;;;;;;;50.07;21.60;;;2.70;1.00;;;;;;5032281;28;20439;-70
2021/12/29 05:58:22;;;;;;;48.23;19.40;;;2.80;1.00;;;;;;5032884;28;20664;-73
2021/12/29 06:00:48;;;;;;;41.40;18.47;;;2.80;1.00;;;;;;5032820;28;20541;-72
2021/12/29 06:03:15;;;;;;;41.90;18.37;;;2.80;1.00;;;;;;5032464;28;20198;-67
2021/12/29 06:05:41;;;;;;;36.53;18.77;;;2.60;1.00;;;;;;5033280;28;20183;-69
2021/12/29 06:08:07;;;;;;;28.17;15.23;;;2.50;1.00;;;;;;5031954;28;20437;-67
2021/12/29 06:10:33;;;;;;;32.57;15.43;;;2.50;1.00;;;;;;5033103;28;20247;-70
2021/12/29 06:12:59;;;;;;;37.80;19.60;;;2.60;1.00;;;;;;5034439;28;20511;-73
2021/12/29 06:15:25;;;;;;;31.60;14.20;;;2.60;1.00;;;;;;5035362;28;20410;-73
2021/12/29 06:17:51;;;;;;;26.93;15.23;;;2.60;1.00;;;;;;5037080;28;20414;-70
2021/12/29 06:20:16;;;;;;;35.33;17.93;;;2.70;1.00;;;;;;5036760;28;20167;-72
2021/12/29 06:22:43;;;;;;;37.30;17.83;;;2.70;1.00;;;;;;5036276;28;20418;-68
2021/12/29 06:25:15;;;;;;;43.60;19.30;;;2.70;1.00;;;;;;5037270;28;20510;-68
2021/12/29 06:27:41;;;;;;;41.40;19.30;;;2.70;1.00;;;;;;5036807;28;20516;-67
2021/12/29 06:30:10;;;;;;;31.10;15.53;;;2.70;1.00;;;;;;5035653;28;20579;-69
2021/12/29 06:32:36;;;;;;;35.17;16.77;;;2.70;1.00;;;;;;5036043;28;20807;-72
2021/12/29 06:35:03;;;;;;;37.90;16.30;;;2.70;1.00;;;;;;5035204;28;20410;-67
2021/12/29 06:37:28;;;;;;;40.30;16.37;;;2.60;1.00;;;;;;5036016;28;20432;-67
2021/12/29 06:39:54;;;;;;;40.33;20.70;;;2.60;1.00;;;;;;5036804;28;20414;-69
2021/12/29 06:42:20;;;;;;;36.53;17.87;;;2.60;1.00;;;;;;5035010;28;20567;-68
2021/12/29 06:44:47;;;;;;;34.00;18.60;;;2.60;1.00;;;;;;5035712;28;20183;-69
2021/12/29 06:47:14;;;;;;;33.83;16.33;;;2.60;1.00;;;;;;5036675;28;20426;-67
2021/12/29 06:49:39;;;;;;;43.40;17.10;;;2.60;1.00;;;;;;5036476;28;20871;-72
2021/12/29 06:52:06;;;;;;;36.60;17.03;;;2.60;1.00;;;;;;5035502;28;20548;-72
2021/12/29 06:54:33;;;;;;;40.43;15.27;;;2.70;1.00;;;;;;5036259;28;20791;-72
2021/12/29 06:56:59;;;;;;;36.57;19.27;;;2.60;1.00;;;;;;5036460;28;20844;-72
2021/12/29 06:59:25;;;;;;;42.47;17.13;;;2.60;1.00;;;;;;5036356;28;20422;-73
2021/12/29 07:01:50;;;;;;;34.27;15.63;;;2.60;1.00;;;;;;5036153;28;20405;-71
2021/12/29 07:04:16;;;;;;;41.60;17.27;;;2.60;1.00;;;;;;5035828;28;20411;-67
2021/12/29 07:06:42;;;;;;;31.60;17.53;;;2.60;1.00;;;;;;5036248;28;20620;-73
2021/12/29 07:09:08;;;;;;;36.27;17.10;;;2.70;1.00;;;;;;5036379;28;20174;-72
2021/12/29 07:11:36;;;;;;;36.13;18.00;;;2.70;1.00;;;;;;5034739;28;20195;-73
2021/12/29 07:14:03;;;;;;;33.30;17.20;;;2.70;1.00;;;;;;5033189;28;20788;-72
2021/12/29 07:16:30;;;;;;;25.00;16.10;;;2.70;1.00;;;;;;5036278;28;20471;-69
2021/12/29 07:18:55;;;;;;;41.90;18.40;;;2.70;1.00;;;;;;5036064;28;20481;-67
2021/12/29 07:21:21;;;;;;;42.10;19.23;;;2.70;1.00;;;;;;5036004;28;20552;-73
2021/12/29 07:23:47;;;;;;;37.33;16.73;;;2.80;1.00;;;;;;5034664;28;20182;-69
2021/12/29 07:26:12;;;;;;;46.77;19.20;;;2.80;1.00;;;;;;5035893;28;20209;-72
2021/12/29 07:28:39;;;;;;;52.20;23.20;;;2.80;1.00;;;;;;5035447;28;20179;-73
2021/12/29 07:31:05;;;;;;;41.50;18.00;;;2.80;1.00;;;;;;5035307;28;20280;-67
2021/12/29 07:33:32;;;;;;;47.70;21.73;;;2.90;1.00;;;;;;5035035;28;20427;-70
2021/12/29 07:35:58;;;;;;;52.30;20.03;;;2.90;1.00;;;;;;5035636;28;20421;-67
2021/12/29 07:38:23;;;;;;;42.73;18.57;;;2.90;1.00;;;;;;5035810;28;20485;-73
2021/12/29 07:40:49;;;;;;;51.20;23.93;;;2.90;1.00;;;;;;5035687;28;20678;-68
2021/12/29 07:43:15;;;;;;;52.50;21.00;;;2.90;1.00;;;;;;5035024;28;20178;-73
2021/12/29 07:45:42;;;;;;;48.07;20.17;;;2.90;1.00;;;;;;5035574;28;20230;-72
2021/12/29 07:48:09;;;;;;;52.17;20.67;;;2.90;1.00;;;;;;5035020;28;20159;-73
2021/12/29 07:50:36;;;;;;;43.77;19.33;;;2.90;1.00;;;;;;5035059;28;20426;-73
2021/12/29 07:53:02;;;;;;;50.83;24.00;;;3.00;1.00;;;;;;5034488;28;20494;-73
2021/12/29 07:55:28;;;;;;;43.07;17.77;;;2.90;1.00;;;;;;5035311;28;20398;-67
2021/12/29 07:57:53;;;;;;;57.00;19.47;;;2.90;1.00;;;;;;5035336;28;20903;-67
2021/12/29 08:00:19;;;;;;;48.67;17.93;;;2.90;1.00;;;;;;5035232;28;20171;-73
2021/12/29 08:02:47;;;;;;;40.87;19.53;;;2.90;1.00;;;;;;5034825;28;20593;-72
2021/12/29 08:05:13;;;;;;;39.10;17.10;;;2.90;1.00;;;;;;5035405;28;20172;-67
2021/12/29 08:07:39;;;;;;;44.77;19.13;;;2.90;1.00;;;;;;5034265;28;20484;-73
2021/12/29 08:10:05;;;;;;;39.87;18.30;;;2.90;1.00;;;;;;5035551;28;20399;-73
2021/12/29 08:12:31;;;;;;;38.90;18.73;;;2.90;1.00;;;;;;5034174;28;20206;-71
2021/12/29 08:14:56;;;;;;;43.70;20.67;;;2.90;1.00;;;;;;5035183;28;20398;-72
2021/12/29 08:17:22;;;;;;;53.53;19.20;;;2.90;1.00;;;;;;5034937;28;20191;-70
2021/12/29 08:19:48;;;;;;;53.97;18.37;;;2.90;1.00;;;;;;5035013;28;20171;-72
2021/12/29 08:22:13;;;;;;;45.43;19.87;;;2.90;1.00;;;;;;5034159;28;20257;-72
2021/12/29 08:24:39;;;;;;;43.93;18.53;;;2.90;1.00;;;;;;5034879;28;20935;-67
2021/12/29 08:27:05;;;;;;;43.97;18.20;;;3.00;1.00;;;;;;5033927;28;20196;-73
2021/12/29 08:29:31;;;;;;;34.10;16.70;;;3.00;1.00;;;;;;5034710;28;20179;-68
2021/12/29 08:31:57;;;;;;;41.23;18.47;;;3.00;1.00;;;;;;5034368;28;20556;-67
2021/12/29 08:34:24;;;;;;;58.23;18.87;;;3.10;1.00;;;;;;5034572;28;20390;-69
2021/12/29 08:36:50;;;;;;;41.93;17.23;;;3.10;1.00;;;;;;5034467;28;20522;-67
2021/12/29 08:39:18;;;;;;;46.30;19.17;;;3.20;1.00;;;;;;5034079;28;20413;-69
2021/12/29 08:41:45;;;;;;;52.70;18.60;;;3.20;1.00;;;;;;5034779;28;20417;-67
2021/12/29 08:44:11;;;;;;;35.53;18.53;;;3.10;1.00;;;;;;5032448;28;20418;-69
2021/12/29 08:46:36;;;;;;;49.93;20.03;;;3.20;1.00;;;;;;5033543;28;20442;-68
2021/12/29 08:49:02;;;;;;;54.20;16.30;;;3.10;1.00;;;;;;5034241;28;20513;-72
2021/12/29 08:51:28;;;;;;;34.13;17.67;;;3.10;1.00;;;;;;5034314;28;20357;-73
2021/12/29 08:53:54;;;;;;;53.03;20.50;;;3.20;1.00;;;;;;5033469;28;20406;-73
2021/12/29 08:56:20;;;;;;;59.97;19.30;;;3.20;1.00;;;;;;5034246;28;20186;-68
2021/12/29 08:58:46;;;;;;;53.30;21.10;;;3.20;1.00;;;;;;5034122;28;20839;-71
2021/12/29 09:01:12;;;;;;;37.00;17.60;;;3.30;1.00;;;;;;5034166;28;20241;-70
2021/12/29 09:03:38;;;;;;;52.67;16.40;;;3.30;1.00;;;;;;5033276;28;20416;-71
2021/12/29 09:06:04;;;;;;;41.80;17.23;;;3.30;1.00;;;;;;5033754;28;20509;-67
2021/12/29 09:08:30;;;;;;;45.23;17.53;;;3.40;1.00;;;;;;5034023;28;20439;-67
2021/12/29 09:10:56;;;;;;;36.47;15.63;;;3.40;1.00;;;;;;5033822;28;20181;-72
2021/12/29 09:13:22;;;;;;;32.43;14.53;;;3.30;1.00;;;;;;5033419;28;20422;-67
2021/12/29 09:15:49;;;;;;;39.87;14.80;;;3.30;1.00;;;;;;5033846;28;20203;-68
2021/12/29 09:18:16;;;;;;;41.23;17.57;;;3.30;1.00;;;;;;5033808;28;20165;-67
2021/12/29 09:20:46;;;;;;;50.20;17.77;;;3.40;1.00;;;;;;5033412;28;20434;-73
2021/12/29 09:23:14;;;;;;;49.33;16.60;;;3.40;1.00;;;;;;5032754;28;20464;-71
2021/12/29 09:25:42;;;;;;;31.13;16.87;;;3.40;1.00;;;;;;5033838;28;20457;-70
2021/12/29 09:28:09;;;;;;;38.73;18.17;;;3.40;1.00;;;;;;5033803;28;20394;-69
2021/12/29 09:30:36;;;;;;;50.67;20.50;;;3.40;1.00;;;;;;5033853;28;20403;-69
2021/12/29 09:33:03;;;;;;;59.57;18.67;;;3.50;1.00;;;;;;5031367;28;20472;-71
2021/12/29 09:35:29;;;;;;;43.83;17.60;;;3.50;1.00;;;;;;5031962;28;20903;-69
2021/12/29 09:37:55;;;;;;;44.43;17.10;;;3.60;1.00;;;;;;5033848;28;20394;-69
2021/12/29 09:40:23;;;;;;;50.80;18.07;;;3.50;1.00;;;;;;5033281;28;20442;-74
2021/12/29 09:42:51;;;;;;;42.23;16.17;;;3.30;1.00;;;;;;5032171;28;20406;-75
2021/12/29 09:45:17;;;;;;;50.80;19.00;;;3.30;1.00;;;;;;5033380;28;20749;-75
2021/12/29 09:47:43;;;;;;;49.33;18.20;;;3.30;1.00;;;;;;5033136;28;20418;-76
2021/12/29 09:50:14;;;;;;;52.23;20.70;;;3.40;1.00;;;;;;5033265;28;20428;-67
2021/12/29 09:52:41;;;;;;;41.00;16.00;;;3.40;1.00;;;;;;5032548;28;20502;-74
2021/12/29 09:55:10;;;;;;;45.43;19.40;;;3.50;1.00;;;;;;5033337;28;20483;-74
2021/12/29 09:57:44;;;;;;;35.00;19.53;;;3.60;1.00;;;;;;5033218;28;20414;-75
2021/12/29 10:00:25;;;;;;;41.83;17.17;;;3.60;1.00;;;;;;5032492;28;20410;-75
2021/12/29 10:02:52;;;;;;;36.57;17.90;;;3.70;1.00;;;;;;5032489;28;20412;-68
2021/12/29 10:05:18;;;;;;;37.17;20.80;;;3.80;1.00;;;;;;5033028;28;20410;-67
2021/12/29 10:07:44;;;;;;;64.93;21.37;;;3.80;1.00;;;;;;5033222;28;20540;-74
2021/12/29 10:10:20;;;;;;;58.70;20.80;;;3.80;1.00;;;;;;5033018;28;20176;-69
2021/12/29 10:12:47;;;;;;;73.80;26.73;;;3.90;1.00;;;;;;5031172;28;20191;-75
2021/12/29 10:15:13;;;;;;;60.07;22.43;;;3.90;1.00;;;;;;5032609;28;20407;-74
2021/12/29 10:17:39;;;;;;;44.67;20.03;;;3.90;1.00;;;;;;5032281;28;20514;-71
2021/12/29 10:20:12;;;;;;;80.87;23.90;;;3.90;1.00;;;;;;5032657;28;20426;-74
2021/12/29 10:22:39;;;;;;;66.13;25.90;;;3.90;1.00;;;;;;5032063;28;20960;-72
2021/12/29 10:25:12;;;;;;;59.63;25.30;;;3.90;1.00;;;;;;5032718;28;20473;-73
2021/12/29 10:27:40;;;;;;;57.03;23.00;;;4.00;1.00;;;;;;5032458;28;20430;-75
2021/12/29 10:30:19;;;;;;;67.70;22.17;;;4.00;1.00;;;;;;5032890;28;20419;-74
2021/12/29 10:32:45;;;;;;;65.53;23.57;;;4.00;1.00;;;;;;5032089;28;20823;-74
2021/12/29 10:35:21;;;;;;;51.37;20.93;;;4.00;1.00;;;;;;5032365;28;20922;-70
2021/12/29 10:37:46;;;;;;;46.83;20.07;;;4.00;1.00;;;;;;5032320;28;20398;-71
2021/12/29 10:40:32;;;;;;;75.83;22.20;;;4.10;1.00;;;;;;5032596;28;20764;-72
2021/12/29 10:43:00;;;;;;;47.70;20.97;;;4.10;1.00;;;;;;5031922;28;20184;-68
2021/12/29 10:45:38;;;;;;;55.07;23.20;;;4.10;1.00;;;;;;5032604;28;20493;-69
2021/12/29 10:48:26;;;;;;;52.30;20.03;;;4.10;1.00;;;;;;5032717;28;20412;-71
2021/12/29 10:50:59;;;;;;;56.70;21.73;;;4.00;1.00;;;;;;5032343;28;20433;-72
2021/12/29 10:53:25;;;;;;;50.47;23.10;;;4.00;1.00;;;;;;5031285;28;20955;-71
2021/12/29 10:55:51;;;;;;;49.97;21.90;;;4.00;1.00;;;;;;5032298;28;20424;-71
2021/12/29 10:58:23;;;;;;;70.73;25.67;;;4.00;1.00;;;;;;5032453;28;20399;-67
2021/12/29 11:00:58;;;;;;;58.70;21.70;;;4.00;1.00;;;;;;5035565;28;20756;-68
2021/12/29 11:03:28;;;;;;;53.53;19.93;;;4.00;1.00;;;;;;5034159;28;20402;-68
2021/12/29 11:06:00;;;;;;;52.70;21.90;;;4.00;1.00;;;;;;5035793;28;20422;-67
2021/12/29 11:08:33;;;;;;;50.87;21.93;;;3.90;1.00;;;;;;5035964;28;20407;-71
2021/12/29 11:11:07;;;;;;;56.27;18.60;;;3.90;1.00;;;;;;5035178;28;20840;-71
2021/12/29 11:13:33;;;;;;;44.00;21.60;;;4.00;1.00;;;;;;5035201;28;20464;-72
2021/12/29 11:16:03;;;;;;;49.60;21.40;;;4.00;1.00;;;;;;5036218;28;20427;-71
2021/12/29 11:18:50;;;;;;;49.17;21.70;;;4.10;1.00;;;;;;5035746;28;20434;-71
2021/12/29 11:21:27;;;;;;;45.83;20.03;;;4.10;1.00;;;;;;5035770;28;20406;-68
2021/12/29 11:23:53;;;;;;;45.17;20.27;;;4.10;1.00;;;;;;5033549;28;20419;-71
2021/12/29 11:26:32;;;;;;;54.30;18.50;;;4.20;1.00;;;;;;5034968;28;20456;-72
2021/12/29 11:29:13;;;;;;;51.87;18.57;;;4.20;1.00;;;;;;5034506;28;20480;-70
2021/12/29 11:31:56;;;;;;;43.57;19.30;;;4.20;1.00;;;;;;5035370;28;20447;-68
2021/12/29 11:34:27;;;;;;;34.10;17.67;;;4.20;1.00;;;;;;5034923;28;20421;-70
2021/12/29 11:37:12;;;;;;;43.60;20.37;;;4.20;1.00;;;;;;5035437;28;20822;-69
2021/12/29 11:39:41;;;;;;;41.53;19.23;;;4.20;1.00;;;;;;5035461;28;20415;-71
2021/12/29 11:42:07;;;;;;;35.37;19.50;;;4.10;1.00;;;;;;5034669;28;20423;-70
2021/12/29 11:44:33;;;;;;;34.77;17.10;;;4.00;1.00;;;;;;5035066;28;20439;-71
2021/12/29 11:46:59;;;;;;;37.37;17.47;;;3.90;1.00;;;;;;5034630;28;20476;-70
2021/12/29 11:49:24;;;;;;;45.07;18.47;;;4.00;1.00;;;;;;5035270;28;20172;-71
2021/12/29 11:52:18;;;;;;;40.37;19.00;;;4.10;1.00;;;;;;5034902;28;20253;-73
2021/12/29 11:55:05;;;;;;;36.57;19.00;;;4.00;1.00;;;;;;5035016;28;20640;-71
2021/12/29 11:57:33;;;;;;;42.50;18.97;;;4.00;1.00;;;;;;5035083;28;20418;-71
2021/12/29 12:00:18;;;;;;;50.80;18.60;;;4.00;1.00;;;;;;5035017;28;20407;-70
2021/12/29 12:02:52;;;;;;;48.47;20.30;;;4.10;1.00;;;;;;5034377;28;20948;-69
2021/12/29 12:05:22;;;;;;;57.70;22.10;;;4.00;1.00;;;;;;5034351;28;20414;-70
2021/12/29 12:07:49;;;;;;;46.80;20.43;;;4.00;1.00;;;;;;5034789;28;20421;-70
2021/12/29 12:10:33;;;;;;;46.77;18.53;;;4.00;1.00;;;;;;5034388;28;20756;-72
2021/12/29 12:12:59;;;;;;;41.20;18.77;;;4.00;1.00;;;;;;5034036;28;20459;-69
2021/12/29 12:15:31;;;;;;;45.77;20.33;;;4.00;1.00;;;;;;5034765;28;20406;-71
2021/12/29 12:18:06;;;;;;;51.47;19.40;;;4.00;1.00;;;;;;5034674;28;20390;-70
2021/12/29 12:20:47;;;;;;;49.87;19.70;;;4.00;1.00;;;;;;5034590;28;20400;-69
2021/12/29 12:23:28;;;;;;;46.50;21.43;;;4.00;1.00;;;;;;5033710;28;20484;-69
2021/12/29 12:26:06;;;;;;;46.67;20.70;;;4.00;1.00;;;;;;5034147;28;20492;-69
2021/12/29 12:28:43;;;;;;;55.57;19.83;;;4.00;1.00;;;;;;5034383;28;20496;-69
2021/12/29 12:31:19;;;;;;;42.93;19.00;;;3.90;1.00;;;;;;5034354;28;20500;-71
2021/12/29 12:33:44;;;;;;;61.50;22.10;;;3.90;1.00;;;;;;5033687;28;20741;-69
2021/12/29 12:36:10;;;;;;;45.63;22.97;;;3.90;1.00;;;;;;5034272;28;20433;-72
2021/12/29 12:38:37;;;;;;;55.07;20.93;;;3.80;1.00;;;;;;5034232;28;20182;-71
2021/12/29 12:41:14;;;;;;;51.60;20.60;;;3.90;1.00;;;;;;5033485;28;20752;-69
2021/12/29 12:43:59;;;;;;;55.23;21.37;;;3.80;1.00;;;;;;5033535;28;20399;-71
2021/12/29 12:46:30;;;;;;;48.87;20.97;;;3.80;1.00;;;;;;5033941;28;20438;-69
2021/12/29 12:48:56;;;;;;;58.63;18.63;;;3.80;1.00;;;;;;5034010;28;20407;-70
2021/12/29 12:51:22;;;;;;;56.80;24.47;;;3.80;1.00;;;;;;5033945;28;20947;-69
2021/12/29 12:53:48;;;;;;;56.30;21.87;;;3.70;1.00;;;;;;5033307;28;20768;-71
2021/12/29 12:56:22;;;;;;;64.23;22.90;;;3.70;1.00;;;;;;5033812;28;20437;-72
2021/12/29 12:58:50;;;;;;;68.17;21.83;;;3.80;1.00;;;;;;5033548;28;20438;-71